Time;durP1;ratioP1;P1;durP2;ratioP2;P2;SDS_P1;SDS_P2;PMS_P1;PMS_P2;Temp;Humidity;BMP_temperature;BMP_pressure;BME280_temperature;BME280_humidity;BME280_pressure;Samples;Min_cycle;Max_cycle;Signal;HPM_P1;HPM_P2
2022/10/22 00:00:30;;;;;;;6.15;4.57;;;12.90;99.90;;;;;;5054607;28;20061;-82
2022/10/22 00:02:56;;;;;;;7.07;5.00;;;12.90;99.90;;;;;;5053225;28;20132;-82
2022/10/22 00:05:22;;;;;;;4.82;3.58;;;12.80;99.90;;;;;;5055011;28;20103;-82
2022/10/22 00:07:47;;;;;;;6.10;5.30;;;12.80;99.90;;;;;;5054452;28;20200;-82
2022/10/22 00:10:13;;;;;;;8.02;4.57;;;12.80;99.90;;;;;;5053365;28;20128;-82
2022/10/22 00:12:39;;;;;;;10.52;4.55;;;12.80;99.90;;;;;;5053722;28;20063;-82
2022/10/22 00:15:05;;;;;;;8.90;4.20;;;12.70;99.90;;;;;;5054409;28;20483;-82
2022/10/22 00:17:31;;;;;;;10.98;4.85;;;12.70;99.90;;;;;;5054189;28;20402;-82
2022/10/22 00:19:57;;;;;;;5.25;4.20;;;12.70;99.90;;;;;;5054441;28;20040;-82
2022/10/22 00:22:22;;;;;;;7.20;5.38;;;12.70;99.90;;;;;;5054261;28;20037;-80
2022/10/22 00:24:48;;;;;;;5.95;4.93;;;12.60;99.90;;;;;;5054570;28;20080;-82
2022/10/22 00:27:13;;;;;;;4.90;4.10;;;12.60;99.90;;;;;;5053082;28;20056;-79
2022/10/22 00:29:39;;;;;;;6.43;4.25;;;12.60;99.90;;;;;;5054444;28;20056;-80
2022/10/22 00:32:06;;;;;;;5.10;4.32;;;12.60;99.90;;;;;;5053871;28;20045;-80
2022/10/22 00:34:32;;;;;;;6.57;4.82;;;12.60;99.90;;;;;;5053378;28;20049;-80
2022/10/22 00:36:57;;;;;;;7.72;4.88;;;12.50;99.90;;;;;;5054265;28;20528;-79
2022/10/22 00:39:25;;;;;;;5.97;4.75;;;12.50;99.90;;;;;;5054342;28;20134;-79
2022/10/22 00:41:53;;;;;;;7.68;4.93;;;12.50;99.90;;;;;;5053565;28;20534;-80
2022/10/22 00:44:56;;;;;;;7.22;4.97;;;12.50;99.90;;;;;;5054237;28;20471;-80
2022/10/22 00:47:24;;;;;;;9.30;4.95;;;12.40;99.90;;;;;;5053967;28;20040;-79
2022/10/22 00:49:51;;;;;;;6.63;4.38;;;12.50;99.90;;;;;;5053205;28;20044;-81
2022/10/22 00:52:17;;;;;;;7.97;4.78;;;12.40;99.90;;;;;;5054095;28;20130;-81
2022/10/22 00:54:43;;;;;;;7.65;4.18;;;12.40;99.90;;;;;;5052427;28;20044;-81
2022/10/22 00:57:09;;;;;;;6.75;4.47;;;12.40;99.90;;;;;;5054206;28;20124;-81
2022/10/22 00:59:36;;;;;;;8.32;4.25;;;12.30;99.90;;;;;;5054132;28;20451;-81
2022/10/22 01:02:02;;;;;;;6.72;5.07;;;12.40;99.90;;;;;;5054286;28;20056;-81
2022/10/22 01:04:27;;;;;;;10.27;5.25;;;12.30;99.90;;;;;;5053763;28;20124;-81
2022/10/22 01:06:53;;;;;;;7.30;4.72;;;12.40;99.90;;;;;;5053772;28;20519;-81
2022/10/22 01:09:25;;;;;;;8.32;3.92;;;12.30;99.90;;;;;;5054373;28;20128;-81
2022/10/22 01:12:21;;;;;;;7.03;3.95;;;12.40;99.90;;;;;;5053543;28;20083;-81
2022/10/22 01:15:09;;;;;;;5.75;4.68;;;12.40;99.90;;;;;;5053430;28;20049;-81
2022/10/22 01:17:53;;;;;;;6.00;4.70;;;12.40;99.90;;;;;;5053288;28;20041;-81
2022/10/22 01:20:39;;;;;;;5.68;4.22;;;12.40;99.90;;;;;;5053325;28;20122;-81
2022/10/22 01:23:42;;;;;;;6.10;4.68;;;12.40;99.90;;;;;;5053209;28;20106;-81
2022/10/22 01:26:11;;;;;;;8.40;5.13;;;12.40;99.90;;;;;;5053128;28;20443;-81
2022/10/22 01:28:51;;;;;;;7.05;4.43;;;12.40;99.90;;;;;;5053041;28;20047;-81
2022/10/22 01:31:21;;;;;;;8.05;5.22;;;12.40;99.90;;;;;;5053940;28;20068;-81
2022/10/22 01:33:50;;;;;;;10.48;5.50;;;12.40;99.90;;;;;;5085445;28;20068;-81
2022/10/22 01:36:17;;;;;;;5.57;5.07;;;12.40;99.90;;;;;;5052502;28;20049;-81
2022/10/22 01:38:45;;;;;;;7.88;5.72;;;12.40;99.90;;;;;;5053292;28;20461;-81
2022/10/22 01:41:11;;;;;;;6.07;4.93;;;12.40;99.90;;;;;;5051966;28;20053;-81
2022/10/22 01:43:36;;;;;;;4.35;3.95;;;12.40;99.90;;;;;;5055658;28;20052;-81
2022/10/22 01:46:04;;;;;;;6.07;4.68;;;12.40;99.90;;;;;;5037291;28;20049;-81
2022/10/22 01:49:06;;;;;;;7.47;5.20;;;12.40;99.90;;;;;;5054678;28;20140;-81
2022/10/22 01:51:38;;;;;;;9.45;5.40;;;12.40;99.90;;;;;;5053200;28;20061;-80
2022/10/22 01:54:22;;;;;;;7.90;4.80;;;12.40;99.90;;;;;;5051979;28;20367;-80
2022/10/22 01:57:08;;;;;;;11.13;5.68;;;12.50;99.90;;;;;;5053349;28;20118;-81
2022/10/22 01:59:46;;;;;;;5.68;4.95;;;12.50;99.90;;;;;;5053366;28;20049;-81
2022/10/22 02:02:12;;;;;;;8.75;5.63;;;12.50;99.90;;;;;;5051664;28;20494;-81
2022/10/22 02:05:08;;;;;;;9.50;5.97;;;12.50;99.90;;;;;;5052955;28;20053;-81
2022/10/22 02:07:47;;;;;;;7.68;5.88;;;12.60;99.90;;;;;;5041726;28;20124;-81
2022/10/22 02:10:14;;;;;;;9.68;6.50;;;12.60;99.90;;;;;;5052577;28;20043;-81
2022/10/22 02:12:42;;;;;;;10.70;6.35;;;12.60;99.90;;;;;;5034504;28;20045;-81
2022/10/22 02:15:10;;;;;;;7.93;5.75;;;12.60;99.90;;;;;;5052490;28;20098;-81
2022/10/22 02:17:38;;;;;;;7.03;5.57;;;12.60;99.90;;;;;;5052451;28;20147;-80
2022/10/22 02:20:25;;;;;;;9.13;5.85;;;12.60;99.90;;;;;;5052229;28;20100;-81
2022/10/22 02:22:51;;;;;;;8.75;5.93;;;12.60;99.90;;;;;;5052103;28;20051;-80
2022/10/22 02:25:17;;;;;;;9.20;5.50;;;12.60;99.90;;;;;;5052249;28;20067;-81
2022/10/22 02:28:05;;;;;;;6.38;4.97;;;12.60;99.90;;;;;;5052577;28;20071;-80
2022/10/22 02:30:32;;;;;;;8.07;6.15;;;12.50;99.90;;;;;;5052564;28;20053;-81
2022/10/22 02:33:20;;;;;;;7.82;5.63;;;12.50;99.90;;;;;;5052110;28;20127;-81
2022/10/22 02:35:48;;;;;;;6.70;5.25;;;12.50;99.90;;;;;;5052297;28;20084;-80
2022/10/22 02:38:14;;;;;;;7.05;4.65;;;12.50;99.90;;;;;;5052093;28;20171;-80
2022/10/22 02:40:40;;;;;;;10.43;6.72;;;12.60;99.90;;;;;;5051867;28;20080;-80
2022/10/22 02:43:06;;;;;;;10.57;6.78;;;12.50;99.90;;;;;;5051921;28;20045;-80
2022/10/22 02:45:32;;;;;;;10.43;6.70;;;12.60;99.90;;;;;;5051997;28;20047;-81
2022/10/22 02:47:58;;;;;;;13.45;6.05;;;12.60;99.90;;;;;;5052091;28;20049;-81
2022/10/22 02:50:24;;;;;;;8.93;6.30;;;12.60;99.90;;;;;;5052182;28;20106;-81
2022/10/22 02:52:49;;;;;;;8.77;6.72;;;12.60;99.90;;;;;;5052171;28;20049;-81
2022/10/22 02:55:15;;;;;;;6.63;5.93;;;12.60;99.90;;;;;;5052211;28;20059;-81
2022/10/22 02:57:41;;;;;;;9.35;6.80;;;12.60;99.90;;;;;;5051873;28;20552;-81
2022/10/22 03:00:08;;;;;;;9.73;6.40;;;12.60;99.90;;;;;;5051704;28;20056;-80
2022/10/22 03:02:34;;;;;;;10.10;6.97;;;12.60;99.90;;;;;;5051840;28;20083;-80
2022/10/22 03:05:00;;;;;;;8.85;6.15;;;12.60;99.90;;;;;;5051870;28;20061;-81
2022/10/22 03:07:26;;;;;;;10.73;7.50;;;12.60;99.90;;;;;;5051974;28;20466;-81
2022/10/22 03:09:52;;;;;;;8.68;7.00;;;12.60;99.90;;;;;;5051764;28;20551;-81
2022/10/22 03:12:17;;;;;;;8.23;6.32;;;12.60;99.90;;;;;;5051571;28;20048;-81
2022/10/22 03:14:43;;;;;;;9.05;7.43;;;12.60;99.90;;;;;;5056177;28;20098;-81
2022/10/22 03:17:09;;;;;;;10.15;7.35;;;12.60;99.90;;;;;;5056561;28;20476;-81
2022/10/22 03:19:34;;;;;;;11.07;8.32;;;12.60;99.90;;;;;;5055598;28;20055;-80
2022/10/22 03:22:04;;;;;;;10.82;7.43;;;12.60;99.90;;;;;;5055418;28;20052;-81
2022/10/22 03:24:38;;;;;;;7.93;6.72;;;12.60;99.90;;;;;;5055723;28;20055;-80
2022/10/22 03:27:04;;;;;;;12.82;7.75;;;12.60;99.90;;;;;;5055462;28;20037;-80
2022/10/22 03:29:33;;;;;;;10.43;7.43;;;12.70;99.90;;;;;;5055672;28;20048;-81
2022/10/22 03:31:59;;;;;;;9.80;6.95;;;12.60;99.90;;;;;;5055332;28;20123;-80
2022/10/22 03:34:24;;;;;;;8.18;6.80;;;12.60;99.90;;;;;;5055298;28;20087;-81
2022/10/22 03:36:50;;;;;;;10.80;7.75;;;12.60;99.90;;;;;;5056197;28;20052;-80
2022/10/22 03:39:18;;;;;;;10.55;7.22;;;12.60;99.90;;;;;;5055567;28;20037;-80
2022/10/22 03:41:44;;;;;;;11.45;6.60;;;12.60;99.90;;;;;;5055341;28;20045;-80
2022/10/22 03:44:11;;;;;;;10.40;7.40;;;12.60;99.90;;;;;;5055249;28;20076;-81
2022/10/22 03:46:36;;;;;;;14.60;7.40;;;12.60;99.90;;;;;;5055623;28;20041;-80
2022/10/22 03:49:02;;;;;;;11.82;7.60;;;12.60;99.90;;;;;;5055815;28;20472;-81
2022/10/22 03:51:28;;;;;;;10.02;7.07;;;12.60;99.90;;;;;;5055053;28;20044;-80
2022/10/22 03:53:54;;;;;;;11.52;7.13;;;12.60;99.90;;;;;;5054911;28;20049;-80
2022/10/22 03:56:19;;;;;;;9.95;7.40;;;12.60;99.90;;;;;;5054998;28;20102;-81
2022/10/22 03:58:45;;;;;;;15.13;7.85;;;12.60;99.90;;;;;;5055206;28;20049;-81
2022/10/22 04:01:12;;;;;;;12.98;7.75;;;12.60;99.90;;;;;;5054847;28;20070;-80
2022/10/22 04:03:39;;;;;;;11.25;7.50;;;12.60;99.90;;;;;;5053764;28;20075;-81
2022/10/22 04:06:10;;;;;;;9.93;7.53;;;12.50;99.90;;;;;;5054639;28;20041;-81
2022/10/22 04:08:38;;;;;;;11.05;7.70;;;12.60;99.90;;;;;;5055164;28;20070;-81
2022/10/22 04:11:05;;;;;;;12.40;9.02;;;12.60;99.90;;;;;;5054880;28;20040;-80
2022/10/22 04:13:30;;;;;;;10.10;8.20;;;12.60;99.90;;;;;;5054795;28;20049;-80
2022/10/22 04:16:09;;;;;;;8.27;7.43;;;12.50;99.90;;;;;;5054901;28;20132;-81
2022/10/22 04:18:35;;;;;;;11.88;8.07;;;12.50;99.90;;;;;;5054914;28;20064;-80
2022/10/22 04:21:01;;;;;;;11.55;8.32;;;12.50;99.90;;;;;;5054211;28;20489;-81
2022/10/22 04:23:27;;;;;;;14.40;8.50;;;12.50;99.90;;;;;;5053630;28;20099;-81
2022/10/22 04:26:00;;;;;;;9.80;7.00;;;12.50;99.90;;;;;;5054347;28;20041;-81
2022/10/22 04:28:26;;;;;;;14.57;8.80;;;12.50;99.90;;;;;;5054576;28;20049;-81
2022/10/22 04:30:52;;;;;;;10.10;8.95;;;12.50;99.90;;;;;;5054532;28;20470;-80
2022/10/22 04:33:18;;;;;;;12.55;8.15;;;12.60;99.90;;;;;;5054197;28;20052;-81
2022/10/22 04:35:44;;;;;;;10.60;8.55;;;12.50;99.90;;;;;;5054282;28;20044;-81
2022/10/22 04:38:09;;;;;;;10.88;7.90;;;12.50;99.90;;;;;;5053992;28;20048;-80
2022/10/22 04:40:35;;;;;;;14.40;9.13;;;12.50;99.90;;;;;;5055545;28;20059;-80
2022/10/22 04:43:01;;;;;;;11.00;7.78;;;12.50;99.90;;;;;;5056024;28;20048;-80
2022/10/22 04:45:26;;;;;;;12.40;8.38;;;12.50;99.90;;;;;;5057052;28;20589;-80
2022/10/22 04:47:52;;;;;;;11.93;8.73;;;12.60;99.90;;;;;;5056353;28;20045;-80
2022/10/22 04:50:19;;;;;;;11.98;8.00;;;12.60;99.90;;;;;;5053832;28;20051;-81
2022/10/22 04:52:44;;;;;;;13.90;9.85;;;12.60;99.90;;;;;;5053900;28;20065;-81
2022/10/22 04:55:10;;;;;;;12.00;8.80;;;12.60;99.90;;;;;;5053849;28;20049;-80
2022/10/22 04:57:36;;;;;;;11.63;9.20;;;12.60;99.90;;;;;;5053526;28;20040;-80
2022/10/22 05:00:02;;;;;;;12.93;8.82;;;12.60;99.90;;;;;;5053833;28;20045;-80
2022/10/22 05:02:28;;;;;;;12.23;9.18;;;12.60;99.90;;;;;;5053840;28;20049;-80
2022/10/22 05:04:54;;;;;;;10.55;8.68;;;12.70;99.90;;;;;;5053398;28;20064;-80
2022/10/22 05:07:19;;;;;;;10.70;7.80;;;12.60;99.90;;;;;;5053800;28;20041;-80
2022/10/22 05:09:45;;;;;;;13.23;8.23;;;12.60;99.90;;;;;;5053875;28;20076;-80
2022/10/22 05:12:11;;;;;;;11.13;8.43;;;12.70;99.90;;;;;;5052432;28;20037;-80
2022/10/22 05:14:36;;;;;;;13.55;8.70;;;12.70;99.90;;;;;;5069385;28;20118;-80
2022/10/22 05:17:02;;;;;;;12.20;8.05;;;12.60;99.90;;;;;;5053229;28;20064;-80
2022/10/22 05:19:30;;;;;;;12.48;7.28;;;12.70;99.90;;;;;;5053641;28;20033;-80
2022/10/22 05:21:58;;;;;;;10.75;8.18;;;12.70;99.90;;;;;;5070927;28;20032;-80
2022/10/22 05:24:25;;;;;;;14.02;9.43;;;12.30;99.90;;;;;;5054117;28;20527;-80
2022/10/22 05:26:52;;;;;;;10.43;8.05;;;12.70;99.90;;;;;;5086546;28;20045;-80
2022/10/22 05:29:19;;;;;;;10.30;7.65;;;12.60;99.90;;;;;;5054915;28;20045;-80
2022/10/22 05:31:53;;;;;;;9.90;7.68;;;12.60;99.90;;;;;;5054885;28;20432;-80
2022/10/22 05:34:19;;;;;;;12.23;7.45;;;12.60;99.90;;;;;;5053830;28;20041;-80
2022/10/22 05:36:45;;;;;;;10.95;8.30;;;12.60;99.90;;;;;;5053517;28;20047;-80
2022/10/22 05:39:14;;;;;;;12.43;8.20;;;12.60;99.90;;;;;;5052548;28;20067;-80
2022/10/22 05:41:40;;;;;;;9.63;8.35;;;12.60;99.90;;;;;;5052523;28;20047;-80
2022/10/22 05:44:06;;;;;;;12.30;8.75;;;12.60;99.90;;;;;;5053319;28;20053;-80
2022/10/22 05:46:34;;;;;;;10.73;8.10;;;12.60;99.90;;;;;;5054025;28;20052;-80
2022/10/22 05:49:03;;;;;;;12.02;8.95;;;12.70;99.90;;;;;;5053899;28;20064;-80
2022/10/22 05:51:30;;;;;;;12.10;8.00;;;12.70;99.90;;;;;;5053566;28;20110;-79
2022/10/22 05:54:01;;;;;;;11.93;8.50;;;12.70;99.90;;;;;;5053172;28;20067;-81
2022/10/22 05:56:29;;;;;;;14.57;8.95;;;12.70;99.90;;;;;;5053106;28;20514;-81
2022/10/22 05:58:55;;;;;;;11.35;8.43;;;12.70;99.90;;;;;;5053409;28;20041;-79
2022/10/22 06:01:24;;;;;;;13.40;8.30;;;12.70;99.90;;;;;;5053651;28;20037;-79
2022/10/22 06:04:01;;;;;;;13.32;9.07;;;12.70;99.90;;;;;;5052820;28;20154;-78
2022/10/22 06:06:54;;;;;;;11.30;7.57;;;12.80;99.90;;;;;;5053575;28;20123;-79
2022/10/22 06:09:23;;;;;;;10.60;7.90;;;12.70;99.90;;;;;;5052993;28;20037;-79
2022/10/22 06:11:49;;;;;;;10.15;8.20;;;12.70;99.90;;;;;;5053092;28;20048;-79
2022/10/22 06:14:16;;;;;;;13.07;8.07;;;12.80;99.90;;;;;;5053063;28;20200;-80
2022/10/22 06:16:42;;;;;;;12.45;7.95;;;12.80;99.90;;;;;;5053342;28;20456;-80
2022/10/22 06:19:13;;;;;;;9.98;8.27;;;12.80;99.90;;;;;;5069439;28;20037;-80
2022/10/22 06:21:39;;;;;;;17.80;9.48;;;12.80;99.90;;;;;;5086043;28;20083;-80
2022/10/22 06:24:06;;;;;;;13.50;8.48;;;12.90;99.90;;;;;;5036404;28;20045;-80
2022/10/22 06:26:32;;;;;;;12.95;8.48;;;12.90;99.90;;;;;;5068833;28;20080;-80
2022/10/22 06:28:58;;;;;;;16.50;8.65;;;12.90;99.90;;;;;;5053008;28;20393;-80
2022/10/22 06:31:25;;;;;;;11.30;7.65;;;12.90;99.90;;;;;;5051645;28;20095;-81
2022/10/22 06:33:56;;;;;;;13.35;9.18;;;13.00;99.90;;;;;;5053417;28;20080;-80
2022/10/22 06:36:23;;;;;;;11.68;8.52;;;13.00;99.90;;;;;;5053538;28;20054;-82
2022/10/22 06:38:56;;;;;;;13.82;8.50;;;13.00;99.90;;;;;;5084655;28;20057;-81
2022/10/22 06:41:23;;;;;;;15.75;8.70;;;13.00;99.90;;;;;;5052226;28;20463;-81
2022/10/22 06:43:49;;;;;;;14.18;7.40;;;13.00;99.90;;;;;;5051924;28;20119;-81
2022/10/22 06:46:17;;;;;;;11.13;7.45;;;13.00;99.90;;;;;;5052577;28;20136;-81
2022/10/22 06:48:47;;;;;;;12.35;7.55;;;13.00;99.90;;;;;;5051736;28;20037;-81
2022/10/22 06:51:12;;;;;;;11.07;7.63;;;13.00;99.90;;;;;;5052614;28;20048;-81
2022/10/22 06:53:39;;;;;;;13.20;8.38;;;13.00;99.90;;;;;;5085041;28;20524;-82
2022/10/22 06:56:09;;;;;;;10.25;7.70;;;13.10;99.90;;;;;;5051897;28;20055;-81
2022/10/22 06:58:35;;;;;;;11.27;7.47;;;13.10;99.90;;;;;;5051975;28;20477;-79
2022/10/22 07:01:10;;;;;;;15.90;8.25;;;13.10;99.90;;;;;;5052125;28;20045;-81
2022/10/22 07:03:37;;;;;;;10.70;8.30;;;13.20;99.90;;;;;;5051690;28;20099;-82
2022/10/22 07:06:05;;;;;;;11.88;8.05;;;13.20;99.90;;;;;;5084566;28;20092;-82
2022/10/22 07:08:31;;;;;;;14.27;7.47;;;13.30;99.90;;;;;;5052245;28;20052;-82
2022/10/22 07:11:08;;;;;;;13.93;8.23;;;13.30;99.90;;;;;;5052135;28;20552;-83
2022/10/22 07:13:34;;;;;;;14.27;8.02;;;13.40;99.90;;;;;;5052388;28;20045;-83
2022/10/22 07:16:00;;;;;;;11.40;7.63;;;13.40;99.90;;;;;;5052222;28;20045;-82
2022/10/22 07:18:26;;;;;;;13.57;7.82;;;13.50;99.90;;;;;;5050750;28;20056;-82
2022/10/22 07:20:52;;;;;;;10.57;7.20;;;13.40;99.90;;;;;;5051843;28;20052;-82
2022/10/22 07:23:18;;;;;;;9.52;6.65;;;13.50;99.90;;;;;;5052176;28;20041;-81
2022/10/22 07:25:44;;;;;;;9.93;7.72;;;13.50;99.90;;;;;;5052175;28;20048;-81
2022/10/22 07:28:10;;;;;;;10.25;6.90;;;13.50;99.90;;;;;;5052124;28;20080;-82
2022/10/22 07:30:37;;;;;;;10.95;7.35;;;13.60;99.90;;;;;;5085078;28;20103;-82
2022/10/22 07:33:03;;;;;;;10.60;6.68;;;13.60;99.90;;;;;;5053430;28;20049;-81
2022/10/22 07:35:29;;;;;;;8.32;6.78;;;13.60;99.90;;;;;;5089292;28;20051;-81
2022/10/22 07:37:55;;;;;;;10.88;6.68;;;13.60;99.90;;;;;;5055929;28;20045;-81
2022/10/22 07:40:21;;;;;;;12.70;6.78;;;13.60;99.90;;;;;;5056717;28;20084;-81
2022/10/22 07:42:47;;;;;;;12.65;6.80;;;13.70;99.90;;;;;;5057274;28;20107;-81
2022/10/22 07:45:12;;;;;;;10.38;6.43;;;13.70;99.90;;;;;;5055904;28;20493;-82
2022/10/22 07:47:38;;;;;;;10.18;6.53;;;13.80;99.90;;;;;;5055662;28;20076;-82
2022/10/22 07:50:06;;;;;;;9.68;6.93;;;13.80;99.90;;;;;;5056128;28;20059;-82
2022/10/22 07:52:31;;;;;;;15.52;6.15;;;13.80;99.90;;;;;;5056119;28;20120;-81
2022/10/22 07:54:57;;;;;;;11.23;6.43;;;13.90;99.90;;;;;;5059177;28;20088;-82
2022/10/22 07:57:23;;;;;;;15.50;6.68;;;13.90;99.90;;;;;;5069581;28;20037;-81
2022/10/22 07:59:49;;;;;;;10.50;6.78;;;13.90;99.90;;;;;;5074062;28;20044;-82
2022/10/22 08:02:14;;;;;;;9.77;5.15;;;14.00;99.90;;;;;;5071043;28;20045;-81
2022/10/22 08:04:40;;;;;;;9.48;5.82;;;14.00;99.90;;;;;;5076610;28;20060;-81
2022/10/22 08:07:06;;;;;;;12.98;6.20;;;14.10;99.90;;;;;;5069957;28;20459;-82
2022/10/22 08:09:32;;;;;;;12.23;6.05;;;14.10;99.90;;;;;;5055084;28;20470;-81
2022/10/22 08:11:57;;;;;;;10.95;6.07;;;14.10;99.90;;;;;;5054949;28;20370;-82
2022/10/22 08:14:23;;;;;;;9.57;6.10;;;14.70;99.90;;;;;;5054954;28;20052;-82
2022/10/22 08:16:49;;;;;;;10.20;6.75;;;14.10;99.90;;;;;;5055110;28;20049;-82
2022/10/22 08:19:19;;;;;;;14.43;6.10;;;13.70;99.90;;;;;;5054957;28;20037;-84
2022/10/22 08:21:46;;;;;;;9.43;6.68;;;14.10;99.90;;;;;;5055351;28;20045;-83
2022/10/22 08:24:12;;;;;;;9.13;5.75;;;14.20;99.90;;;;;;5054827;28;20138;-82
2022/10/22 08:26:38;;;;;;;8.50;6.03;;;14.20;99.90;;;;;;5054661;28;20044;-82
2022/10/22 08:29:04;;;;;;;8.88;5.93;;;14.30;99.90;;;;;;5055459;28;20118;-82
2022/10/22 08:31:30;;;;;;;7.97;5.75;;;14.40;99.90;;;;;;5055015;28;20493;-82
2022/10/22 08:33:55;;;;;;;10.48;5.72;;;14.50;99.90;;;;;;5054986;28;20067;-83
2022/10/22 08:36:21;;;;;;;10.32;5.28;;;14.60;99.90;;;;;;5054363;28;20052;-82
2022/10/22 08:38:47;;;;;;;11.93;5.70;;;14.70;99.90;;;;;;5054407;28;20080;-83
2022/10/22 08:41:16;;;;;;;7.75;4.90;;;14.80;99.90;;;;;;5087558;28;20045;-83
2022/10/22 08:44:15;;;;;;;8.63;5.53;;;14.90;99.90;;;;;;5054806;28;20137;-82
2022/10/22 08:47:23;;;;;;;8.82;4.75;;;15.00;99.90;;;;;;5055395;28;20045;-83
2022/10/22 08:49:49;;;;;;;8.27;4.85;;;15.20;99.90;;;;;;5054675;28;20049;-82
2022/10/22 08:52:17;;;;;;;7.55;4.68;;;15.20;99.90;;;;;;5053858;28;20053;-83
2022/10/22 08:54:56;;;;;;;7.47;4.30;;;15.30;99.90;;;;;;5054930;28;20053;-84
2022/10/22 08:57:45;;;;;;;9.50;4.63;;;15.40;99.90;;;;;;5054777;28;20041;-72
2022/10/22 09:00:29;;;;;;;8.07;4.70;;;15.50;99.90;;;;;;5054429;28;20088;-73
2022/10/22 09:02:55;;;;;;;;;;;15.60;99.90;;;;;;5055093;28;20053;-72
2022/10/22 09:05:42;;;;;;;9.38;4.38;;;15.70;99.90;;;;;;5053744;28;20015;-85
2022/10/22 09:08:12;;;;;;;8.70;4.82;;;15.70;99.90;;;;;;5054482;28;20049;-83
2022/10/22 09:10:46;;;;;;;8.38;4.13;;;15.80;99.90;;;;;;5054273;28;20075;-85
2022/10/22 09:13:17;;;;;;;10.18;4.13;;;15.90;99.90;;;;;;5054566;28;20106;-83
2022/10/22 09:15:45;;;;;;;8.07;4.78;;;16.00;99.90;;;;;;5054419;28;20364;-83
2022/10/22 09:18:24;;;;;;;6.70;4.10;;;16.10;99.90;;;;;;5054027;28;20045;-82
2022/10/22 09:21:01;;;;;;;10.15;3.63;;;16.10;99.90;;;;;;5053985;28;20048;-82
2022/10/22 09:23:32;;;;;;;7.55;4.57;;;16.20;99.90;;;;;;5054324;28;20045;-82
2022/10/22 09:26:00;;;;;;;6.82;3.80;;;16.30;99.90;;;;;;5054278;28;20052;-82
2022/10/22 09:28:25;;;;;;;7.35;3.67;;;16.40;99.90;;;;;;5054138;28;20114;-82
2022/10/22 09:30:51;;;;;;;10.20;4.60;;;16.60;99.90;;;;;;5054056;28;20048;-82
2022/10/22 09:33:24;;;;;;;6.35;3.58;;;16.60;99.90;;;;;;5053029;28;20489;-82
2022/10/22 09:35:52;;;;;;;9.32;4.15;;;16.70;99.90;;;;;;5053913;28;20056;-82
2022/10/22 09:38:25;;;;;;;5.90;3.67;;;16.60;99.90;;;;;;5053809;28;20084;-82
2022/10/22 09:40:53;;;;;;;9.73;4.70;;;16.80;99.90;;;;;;5053894;28;20053;-82
2022/10/22 09:43:19;;;;;;;6.53;3.20;;;16.80;99.90;;;;;;5053957;28;20052;-82
2022/10/22 09:45:46;;;;;;;8.68;3.70;;;16.90;99.90;;;;;;5052990;28;20060;-81
2022/10/22 09:48:25;;;;;;;6.55;3.90;;;17.00;99.90;;;;;;5053755;28;20494;-82
2022/10/22 09:51:04;;;;;;;7.47;3.67;;;17.00;99.90;;;;;;5053644;28;20048;-82
2022/10/22 09:53:36;;;;;;;7.28;3.30;;;17.00;99.90;;;;;;5053405;28;20041;-82
2022/10/22 09:56:16;;;;;;;6.72;3.20;;;17.00;99.90;;;;;;5053907;28;20045;-82
2022/10/22 09:58:48;;;;;;;4.50;3.50;;;17.00;99.90;;;;;;5053931;28;20084;-82
2022/10/22 10:01:26;;;;;;;6.68;3.08;;;17.00;99.90;;;;;;5053367;28;20083;-82
2022/10/22 10:03:52;;;;;;;5.68;3.40;;;17.00;99.90;;;;;;5053181;28;20057;-82
2022/10/22 10:06:22;;;;;;;8.77;3.00;;;16.90;99.90;;;;;;5053470;28;20463;-82
2022/10/22 10:08:48;;;;;;;7.28;3.13;;;16.90;99.90;;;;;;5053843;28;20073;-82
2022/10/22 10:11:27;;;;;;;7.80;3.33;;;16.80;99.90;;;;;;5053824;28;20124;-83
2022/10/22 10:14:30;;;;;;;6.82;3.70;;;16.80;99.90;;;;;;5053875;28;20082;-83
2022/10/22 10:16:59;;;;;;;;;;;16.70;99.90;;;;;;5031929;28;20060;-83
2022/10/22 10:19:36;;;;;;;9.68;4.40;;;16.60;99.90;;;;;;5053517;28;19973;-83
2022/10/22 10:22:23;;;;;;;6.50;3.75;;;16.70;99.90;;;;;;5052701;28;20048;-80
2022/10/22 10:25:22;;;;;;;6.40;3.95;;;16.60;99.90;;;;;;5053721;28;20045;-81
2022/10/22 10:27:58;;;;;;;9.68;3.90;;;16.70;99.90;;;;;;5052970;28;20045;-80
2022/10/22 10:30:24;;;;;;;5.05;3.40;;;16.70;99.90;;;;;;5053505;28;20079;-81
2022/10/22 10:33:07;;;;;;;10.23;3.97;;;16.70;99.90;;;;;;5053010;28;20045;-81
2022/10/22 10:35:39;;;;;;;5.80;4.32;;;16.70;99.90;;;;;;5053639;28;20048;-80
2022/10/22 10:38:34;;;;;;;11.98;5.70;;;16.70;99.90;;;;;;5053272;28;20044;-80
2022/10/22 10:41:22;;;;;;;5.88;4.13;;;16.60;99.90;;;;;;5042936;28;20086;-82
2022/10/22 10:43:58;;;;;;;8.63;4.32;;;16.70;99.90;;;;;;5053390;28;20064;-83
2022/10/22 10:46:48;;;;;;;7.13;3.50;;;16.70;99.90;;;;;;5053461;28;20045;-82
2022/10/22 10:49:28;;;;;;;6.53;4.30;;;16.80;99.90;;;;;;5053228;28;20084;-81
2022/10/22 10:52:17;;;;;;;13.63;5.18;;;16.90;99.90;;;;;;5054299;28;20120;-83
2022/10/22 10:55:24;;;;;;;7.18;4.38;;;17.00;99.90;;;;;;5070000;28;20124;-82
2022/10/22 10:58:15;;;;;;;7.78;3.90;;;17.10;99.90;;;;;;5044220;28;20063;-82
2022/10/22 11:00:54;;;;;;;9.57;4.30;;;17.10;99.90;;;;;;5053003;28;20114;-83
2022/10/22 11:03:29;;;;;;;6.60;3.92;;;17.10;99.90;;;;;;5051679;28;20045;-80
2022/10/22 11:05:58;;;;;;;4.82;4.32;;;17.00;99.90;;;;;;5052141;28;20052;-81
2022/10/22 11:08:27;;;;;;;8.88;4.30;;;17.00;99.90;;;;;;5051281;28;20093;-81
2022/10/22 11:11:05;;;;;;;6.75;4.47;;;16.90;99.90;;;;;;5052544;28;20056;-81
2022/10/22 11:13:37;;;;;;;9.98;5.05;;;16.90;99.90;;;;;;5052064;28;20037;-82
2022/10/22 11:16:29;;;;;;;10.87;5.30;;;16.80;99.90;;;;;;5052219;28;20059;-82
2022/10/22 11:19:03;;;;;;;7.57;4.10;;;16.80;99.90;;;;;;5043730;28;20067;-83
2022/10/22 11:21:42;;;;;;;7.72;4.32;;;16.80;99.90;;;;;;5051554;28;20075;-83
2022/10/22 11:24:29;;;;;;;7.28;4.15;;;16.70;99.90;;;;;;5084461;28;20052;-83
2022/10/22 11:27:03;;;;;;;8.18;4.18;;;16.70;99.90;;;;;;5052233;28;20192;-84
2022/10/22 11:29:38;;;;;;;9.98;4.95;;;16.60;99.90;;;;;;5051531;28;20063;-83
2022/10/22 11:32:09;;;;;;;8.02;5.18;;;16.50;99.90;;;;;;5051347;28;20063;-82
2022/10/22 11:34:53;;;;;;;8.02;5.82;;;16.40;99.90;;;;;;5054218;28;20053;-83
2022/10/22 11:37:21;;;;;;;9.93;5.43;;;16.40;99.90;;;;;;5055240;28;20088;-83
2022/10/22 11:40:07;;;;;;;12.25;6.05;;;16.30;99.90;;;;;;5055905;28;20049;-83
2022/10/22 11:42:52;;;;;;;7.43;5.15;;;16.30;99.90;;;;;;5054221;28;20056;-83
2022/10/22 11:45:19;;;;;;;8.63;6.55;;;16.30;99.90;;;;;;5055453;28;20094;-84
2022/10/22 11:48:09;;;;;;;11.85;5.75;;;16.40;99.90;;;;;;5055515;28;20041;-83
2022/10/22 11:50:59;;;;;;;10.07;5.30;;;16.40;99.90;;;;;;5054989;28;20056;-84
2022/10/22 11:53:29;;;;;;;8.05;4.85;;;16.50;99.90;;;;;;5055593;28;20155;-83
2022/10/22 11:56:16;;;;;;;6.68;4.15;;;16.70;99.90;;;;;;5087531;28;20045;-83
2022/10/22 11:58:46;;;;;;;7.38;3.88;;;16.80;99.90;;;;;;5044315;28;20059;-83
2022/10/22 12:01:12;;;;;;;6.97;5.00;;;16.90;99.90;;;;;;5055092;28;20049;-83
2022/10/22 12:03:57;;;;;;;7.88;4.30;;;16.90;99.90;;;;;;5054839;28;20045;-83
2022/10/22 12:06:25;;;;;;;7.75;4.03;;;17.00;99.90;;;;;;5055593;28;20045;-83
2022/10/22 12:08:53;;;;;;;9.18;4.45;;;17.10;99.90;;;;;;5055080;28;20045;-82
2022/10/22 12:11:24;;;;;;;6.78;4.70;;;17.10;99.90;;;;;;5055021;28;20049;-83
2022/10/22 12:14:11;;;;;;;5.32;4.25;;;17.10;99.90;;;;;;5054983;28;20103;-82
2022/10/22 12:16:55;;;;;;;8.73;4.78;;;17.10;99.90;;;;;;5054737;28;20045;-83
2022/10/22 12:19:21;;;;;;;5.57;4.28;;;17.00;99.90;;;;;;5053869;28;20041;-83
2022/10/22 12:21:52;;;;;;;6.40;4.53;;;16.90;99.90;;;;;;5054857;28;20060;-83
2022/10/22 12:24:21;;;;;;;8.98;4.55;;;16.80;99.90;;;;;;5055089;28;20052;-82
2022/10/22 12:26:51;;;;;;;11.55;4.75;;;16.80;99.90;;;;;;5055008;28;20126;-83
2022/10/22 12:29:19;;;;;;;8.98;5.20;;;16.80;99.90;;;;;;5053695;28;20041;-83
2022/10/22 12:31:46;;;;;;;9.43;4.32;;;16.80;99.90;;;;;;5054370;28;20481;-82
2022/10/22 12:34:17;;;;;;;11.27;6.53;;;16.80;99.90;;;;;;5054481;28;20063;-83
2022/10/22 12:36:45;;;;;;;7.57;4.65;;;16.80;99.90;;;;;;5054664;28;20041;-83
2022/10/22 12:39:14;;;;;;;5.72;4.32;;;16.70;99.90;;;;;;5054357;28;20064;-83
2022/10/22 12:41:40;;;;;;;6.15;3.78;;;16.70;99.90;;;;;;5054733;28;20056;-82
2022/10/22 12:44:09;;;;;;;6.30;4.68;;;16.70;99.90;;;;;;5054297;28;20060;-82
2022/10/22 12:46:35;;;;;;;9.52;4.35;;;16.70;99.90;;;;;;5053915;28;20049;-82
2022/10/22 12:49:04;;;;;;;6.78;4.68;;;16.70;99.90;;;;;;5054885;28;20048;-83
2022/10/22 12:51:31;;;;;;;8.10;4.57;;;16.70;99.90;;;;;;5054051;28;20045;-83
2022/10/22 12:54:08;;;;;;;7.85;4.65;;;16.70;99.90;;;;;;5053971;28;20063;-83
2022/10/22 12:56:36;;;;;;;7.63;4.60;;;16.70;99.90;;;;;;5054295;28;20045;-84
2022/10/22 12:59:35;;;;;;;11.52;4.07;;;16.80;99.90;;;;;;5054091;28;20103;-83
2022/10/22 13:02:01;;;;;;;5.80;3.80;;;16.80;99.90;;;;;;5054089;28;20053;-74